Time;durP1;ratioP1;P1;durP2;ratioP2;P2;SDS_P1;SDS_P2;PMS_P1;PMS_P2;Temp;Humidity;BMP_temperature;BMP_pressure;BME280_temperature;BME280_humidity;BME280_pressure;Samples;Min_cycle;Max_cycle;Signal;HPM_P1;HPM_P2
2023/09/23 00:00:59;;;;;;;13.63;6.10;;;;;;;;;;5097036;28;20206;-47
2023/09/23 00:03:35;;;;;;;11.38;6.03;;;;;;;;;;5097243;28;20206;-46
2023/09/23 00:06:03;;;;;;;14.15;6.50;;;;;;;;;;5096914;28;20203;-47
2023/09/23 00:08:31;;;;;;;14.05;6.43;;;;;;;;;;5096671;28;20202;-47
2023/09/23 00:10:58;;;;;;;13.27;6.55;;;;;;;;;;5096637;28;20227;-46
2023/09/23 00:13:28;;;;;;;11.13;6.13;;;;;;;;;;5096861;28;20280;-46
2023/09/23 00:15:56;;;;;;;16.40;6.93;;;;;;;;;;5096587;28;20206;-46
2023/09/23 00:18:23;;;;;;;15.50;6.15;;;;;;;;;;5094682;28;20226;-47
2023/09/23 00:20:50;;;;;;;14.90;7.15;;;;;;;;;;5096563;28;20275;-47
2023/09/23 00:23:17;;;;;;;18.35;7.20;;;;;;;;;;5096384;28;20229;-47
2023/09/23 00:25:46;;;;;;;11.48;6.15;;;;;;;;;;5096843;28;20247;-46
2023/09/23 00:28:14;;;;;;;12.60;6.22;;;;;;;;;;5096506;28;20256;-46
2023/09/23 00:30:45;;;;;;;14.95;6.80;;;;;;;;;;5096156;28;20226;-46
2023/09/23 00:33:16;;;;;;;10.35;6.07;;;;;;;;;;5096429;28;20234;-47
2023/09/23 00:35:44;;;;;;;15.15;6.80;;;;;;;;;;5096292;28;20191;-47
2023/09/23 00:38:12;;;;;;;17.08;6.95;;;;;;;;;;5096144;28;20569;-47
2023/09/23 00:40:41;;;;;;;12.85;6.63;;;;;;;;;;5094646;28;20211;-48
2023/09/23 00:43:15;;;;;;;17.67;6.85;;;;;;;;;;5096150;28;20203;-47
2023/09/23 00:45:48;;;;;;;14.05;6.45;;;;;;;;;;5096131;28;20194;-47
2023/09/23 00:48:20;;;;;;;14.13;6.88;;;;;;;;;;5094719;28;20216;-46
2023/09/23 00:50:50;;;;;;;10.35;6.82;;;;;;;;;;5095068;28;20222;-46
2023/09/23 00:53:18;;;;;;;19.80;7.45;;;;;;;;;;5094637;28;20198;-46
2023/09/23 00:55:52;;;;;;;15.27;7.35;;;;;;;;;;5096021;28;20195;-47
2023/09/23 00:58:21;;;;;;;12.52;6.63;;;;;;;;;;5078879;28;20753;-46
2023/09/23 01:00:51;;;;;;;13.05;7.07;;;;;;;;;;5095650;28;20206;-46
2023/09/23 01:03:19;;;;;;;15.43;7.32;;;;;;;;;;5094294;28;20674;-46
2023/09/23 01:05:49;;;;;;;12.25;6.78;;;;;;;;;;5094422;28;20665;-47
2023/09/23 01:08:29;;;;;;;12.02;7.13;;;;;;;;;;5094521;28;20620;-47
2023/09/23 01:10:57;;;;;;;15.43;6.88;;;;;;;;;;5094295;28;20759;-47
2023/09/23 01:13:26;;;;;;;15.60;7.53;;;;;;;;;;5095896;28;20283;-46
2023/09/23 01:15:53;;;;;;;17.00;6.93;;;;;;;;;;5095678;28;20198;-46
2023/09/23 01:18:20;;;;;;;12.95;7.07;;;;;;;;;;5095447;28;20323;-46
2023/09/23 01:20:51;;;;;;;14.80;6.75;;;;;;;;;;5095360;28;20732;-50
2023/09/23 01:23:18;;;;;;;12.18;6.75;;;;;;;;;;5094101;28;20562;-46
2023/09/23 01:25:45;;;;;;;12.30;7.22;;;;;;;;;;5095226;28;20202;-48
2023/09/23 01:28:13;;;;;;;13.65;7.18;;;;;;;;;;5095130;28;20561;-46
2023/09/23 01:30:41;;;;;;;13.07;6.50;;;;;;;;;;5095000;28;20698;-46
2023/09/23 01:33:08;;;;;;;17.02;7.88;;;;;;;;;;5095011;28;20761;-47
2023/09/23 01:35:36;;;;;;;15.07;6.90;;;;;;;;;;5093849;28;20203;-46
2023/09/23 01:38:03;;;;;;;13.45;7.55;;;;;;;;;;5094959;28;20202;-46
2023/09/23 01:40:32;;;;;;;12.45;6.22;;;;;;;;;;5095237;28;20206;-46
2023/09/23 01:42:59;;;;;;;16.73;6.90;;;;;;;;;;5093852;28;20222;-46
2023/09/23 01:45:28;;;;;;;16.73;7.72;;;;;;;;;;5093676;28;20210;-46
2023/09/23 01:47:56;;;;;;;15.77;7.40;;;;;;;;;;5093613;28;20567;-46
2023/09/23 01:50:26;;;;;;;12.48;7.45;;;;;;;;;;5094515;28;20230;-46
2023/09/23 01:52:56;;;;;;;13.25;6.65;;;;;;;;;;5093912;28;20255;-47
2023/09/23 01:55:23;;;;;;;16.98;7.18;;;;;;;;;;5094654;28;20203;-47
2023/09/23 01:57:50;;;;;;;17.85;6.90;;;;;;;;;;5094800;28;20698;-46
2023/09/23 02:00:18;;;;;;;14.55;7.10;;;;;;;;;;5093594;28;20195;-48
2023/09/23 02:02:45;;;;;;;14.75;6.82;;;;;;;;;;5094744;28;20256;-48
2023/09/23 02:05:13;;;;;;;20.05;8.20;;;;;;;;;;5094501;28;20206;-47
2023/09/23 02:07:41;;;;;;;12.63;7.07;;;;;;;;;;5094417;28;20654;-47
2023/09/23 02:10:11;;;;;;;16.40;7.63;;;;;;;;;;5094270;28;20219;-46
2023/09/23 02:12:38;;;;;;;16.50;6.72;;;;;;;;;;5093391;28;20230;-46
2023/09/23 02:15:06;;;;;;;18.65;7.20;;;;;;;;;;5094280;28;20207;-46
2023/09/23 02:17:36;;;;;;;12.90;6.50;;;;;;;;;;5092937;28;20787;-47
2023/09/23 02:20:10;;;;;;;11.30;6.65;;;;;;;;;;5094543;28;20207;-47
2023/09/23 02:22:37;;;;;;;13.68;6.88;;;;;;;;;;5094677;28;20203;-46
2023/09/23 02:25:07;;;;;;;13.80;6.30;;;;;;;;;;5094274;28;20195;-47
2023/09/23 02:27:36;;;;;;;16.50;6.88;;;;;;;;;;5094475;28;20226;-47
2023/09/23 02:30:06;;;;;;;14.02;7.38;;;;;;;;;;5093988;28;20230;-47
2023/09/23 02:32:34;;;;;;;14.95;7.55;;;;;;;;;;5092891;28;20203;-47
2023/09/23 02:35:02;;;;;;;14.95;6.78;;;;;;;;;;5092709;28;20662;-47
2023/09/23 02:37:29;;;;;;;12.52;6.78;;;;;;;;;;5092797;28;20214;-47
2023/09/23 02:39:56;;;;;;;11.63;6.18;;;;;;;;;;5094067;28;20662;-47
2023/09/23 02:42:23;;;;;;;12.65;6.50;;;;;;;;;;5092879;28;20201;-46
2023/09/23 02:44:54;;;;;;;13.48;7.07;;;;;;;;;;5093769;28;20199;-47
2023/09/23 02:47:22;;;;;;;11.63;7.15;;;;;;;;;;5093945;28;20237;-46
2023/09/23 02:49:49;;;;;;;12.85;6.60;;;;;;;;;;5093686;28;20226;-47
2023/09/23 02:52:17;;;;;;;17.92;6.90;;;;;;;;;;5093699;28;20651;-47
2023/09/23 02:54:45;;;;;;;14.63;6.97;;;;;;;;;;5092688;28;20206;-46
2023/09/23 02:57:12;;;;;;;15.95;7.20;;;;;;;;;;5092608;28;20282;-46
2023/09/23 02:59:41;;;;;;;16.30;7.25;;;;;;;;;;5093605;28;20248;-46
2023/09/23 03:02:09;;;;;;;22.33;7.45;;;;;;;;;;5093708;28;20209;-46
2023/09/23 03:04:36;;;;;;;16.48;6.55;;;;;;;;;;5093696;28;20207;-47
2023/09/23 03:07:06;;;;;;;11.57;6.78;;;;;;;;;;5093657;28;20199;-46
2023/09/23 03:09:34;;;;;;;9.68;6.28;;;;;;;;;;5093548;28;20202;-46
2023/09/23 03:12:01;;;;;;;17.13;6.88;;;;;;;;;;5092277;28;20675;-47
2023/09/23 03:14:36;;;;;;;13.70;6.63;;;;;;;;;;5093431;28;20686;-47
2023/09/23 03:17:04;;;;;;;15.85;7.03;;;;;;;;;;5093368;28;20226;-46
2023/09/23 03:19:32;;;;;;;15.25;7.15;;;;;;;;;;5092238;28;20210;-49
2023/09/23 03:22:00;;;;;;;12.93;6.47;;;;;;;;;;5092370;28;20202;-46
2023/09/23 03:24:29;;;;;;;11.88;6.85;;;;;;;;;;5092204;28;20579;-46
2023/09/23 03:27:02;;;;;;;15.60;7.35;;;;;;;;;;5092357;28;20209;-47
2023/09/23 03:29:30;;;;;;;13.88;6.22;;;;;;;;;;5093690;28;20251;-47
2023/09/23 03:32:01;;;;;;;12.88;6.60;;;;;;;;;;5092231;28;20221;-46
2023/09/23 03:34:29;;;;;;;11.18;6.90;;;;;;;;;;5093273;28;20732;-46
2023/09/23 03:36:58;;;;;;;13.18;6.53;;;;;;;;;;5092003;28;20650;-46
2023/09/23 03:39:37;;;;;;;15.88;6.95;;;;;;;;;;5092328;28;20194;-46
2023/09/23 03:42:04;;;;;;;13.73;7.10;;;;;;;;;;5093310;28;20199;-45
2023/09/23 03:44:33;;;;;;;11.68;6.18;;;;;;;;;;5092108;28;20199;-46
2023/09/23 03:47:00;;;;;;;21.73;6.80;;;;;;;;;;5092989;28;20202;-46
2023/09/23 03:49:28;;;;;;;14.30;6.07;;;;;;;;;;5091541;28;20198;-48
2023/09/23 03:51:56;;;;;;;14.48;6.82;;;;;;;;;;5091851;28;20218;-46
2023/09/23 03:54:24;;;;;;;9.88;6.07;;;;;;;;;;5091626;28;20198;-46
2023/09/23 03:56:51;;;;;;;10.48;6.13;;;;;;;;;;5092785;28;20199;-47
2023/09/23 03:59:19;;;;;;;15.60;6.07;;;;;;;;;;5091689;28;20214;-48
2023/09/23 04:01:46;;;;;;;14.35;5.60;;;;;;;;;;5092782;28;20211;-47
2023/09/23 04:04:13;;;;;;;10.48;5.93;;;;;;;;;;5091905;28;20195;-46
2023/09/23 04:06:41;;;;;;;10.10;6.30;;;;;;;;;;5091495;28;20662;-45
2023/09/23 04:09:12;;;;;;;10.73;5.78;;;;;;;;;;5092869;28;20278;-46
2023/09/23 04:11:39;;;;;;;14.55;6.07;;;;;;;;;;5092781;28;20279;-47
2023/09/23 04:14:07;;;;;;;10.30;5.47;;;;;;;;;;5092716;28;20244;-47
2023/09/23 04:16:34;;;;;;;15.13;6.43;;;;;;;;;;5096272;28;20206;-46
2023/09/23 04:19:01;;;;;;;10.55;5.30;;;;;;;;;;5096102;28;20282;-46
2023/09/23 04:21:30;;;;;;;11.13;6.50;;;;;;;;;;5096432;28;20211;-46
2023/09/23 04:24:00;;;;;;;11.85;5.63;;;;;;;;;;5096348;28;20264;-46
2023/09/23 04:26:27;;;;;;;8.95;5.43;;;;;;;;;;5096263;28;20235;-46
2023/09/23 04:28:55;;;;;;;11.10;5.68;;;;;;;;;;5096114;28;20198;-48
2023/09/23 04:31:24;;;;;;;9.18;5.50;;;;;;;;;;5096089;28;20318;-46
2023/09/23 04:33:51;;;;;;;12.00;6.22;;;;;;;;;;5096104;28;20214;-47
2023/09/23 04:36:21;;;;;;;19.75;5.97;;;;;;;;;;5096068;28;20206;-46
2023/09/23 04:38:49;;;;;;;15.60;5.97;;;;;;;;;;5096083;28;20256;-46
2023/09/23 04:41:16;;;;;;;11.82;5.55;;;;;;;;;;5095908;28;20264;-47
2023/09/23 04:43:43;;;;;;;13.35;5.63;;;;;;;;;;5096114;28;20602;-48
2023/09/23 04:46:14;;;;;;;8.40;5.43;;;;;;;;;;5095725;28;20674;-46
2023/09/23 04:48:42;;;;;;;13.15;6.20;;;;;;;;;;5095903;28;20198;-47
2023/09/23 04:51:10;;;;;;;14.10;5.60;;;;;;;;;;5094964;28;20218;-47
2023/09/23 04:53:37;;;;;;;10.23;5.25;;;;;;;;;;5094356;28;20233;-46
2023/09/23 04:56:07;;;;;;;9.38;6.43;;;;;;;;;;5093988;28;20647;-48
2023/09/23 04:58:35;;;;;;;16.38;5.35;;;;;;;;;;5094456;28;20210;-47
2023/09/23 05:01:03;;;;;;;12.00;5.75;;;;;;;;;;5094477;28;20206;-45
2023/09/23 05:03:31;;;;;;;15.57;5.78;;;;;;;;;;5094281;28;20222;-46
2023/09/23 05:05:58;;;;;;;11.07;5.68;;;;;;;;;;5094577;28;20205;-46
2023/09/23 05:08:25;;;;;;;11.48;6.30;;;;;;;;;;5095583;28;20202;-46
2023/09/23 05:10:52;;;;;;;12.13;5.93;;;;;;;;;;5095713;28;20245;-46
2023/09/23 05:13:20;;;;;;;10.90;5.40;;;;;;;;;;5095403;28;20594;-47
2023/09/23 05:15:47;;;;;;;13.98;5.53;;;;;;;;;;5095614;28;20195;-47
2023/09/23 05:18:14;;;;;;;16.40;5.95;;;;;;;;;;5094063;28;20231;-47
2023/09/23 05:20:41;;;;;;;11.90;5.25;;;;;;;;;;5095297;28;20195;-46
2023/09/23 05:23:09;;;;;;;12.32;6.22;;;;;;;;;;5095216;28;20239;-47
2023/09/23 05:25:40;;;;;;;8.82;5.75;;;;;;;;;;5107907;28;20665;-47
2023/09/23 05:28:10;;;;;;;11.20;5.47;;;;;;;;;;5116020;28;20254;-46
2023/09/23 05:30:37;;;;;;;10.73;5.60;;;;;;;;;;5115505;28;20310;-47
2023/09/23 05:33:04;;;;;;;14.07;5.63;;;;;;;;;;5115479;28;20216;-47
2023/09/23 05:35:32;;;;;;;22.13;5.85;;;;;;;;;;5115307;28;20249;-47
2023/09/23 05:37:59;;;;;;;18.02;6.03;;;;;;;;;;5096695;28;20309;-46
2023/09/23 05:40:27;;;;;;;11.23;5.70;;;;;;;;;;5100106;28;20218;-47
2023/09/23 05:42:55;;;;;;;13.10;5.85;;;;;;;;;;5114020;27;20729;-46
2023/09/23 05:45:24;;;;;;;17.75;5.93;;;;;;;;;;5114417;28;20234;-46
2023/09/23 05:47:52;;;;;;;12.18;6.32;;;;;;;;;;5114597;27;20357;-46
2023/09/23 05:50:20;;;;;;;12.07;5.57;;;;;;;;;;5108566;28;20215;-45
2023/09/23 05:52:49;;;;;;;15.73;6.07;;;;;;;;;;5093603;28;20710;-46
2023/09/23 05:55:16;;;;;;;7.43;5.47;;;;;;;;;;5094256;28;20309;-48
2023/09/23 05:57:43;;;;;;;14.55;5.65;;;;;;;;;;5092801;28;20227;-46
2023/09/23 06:00:12;;;;;;;14.77;6.03;;;;;;;;;;5094750;28;20231;-47
2023/09/23 06:02:39;;;;;;;11.95;5.90;;;;;;;;;;5093544;28;20223;-46
2023/09/23 06:05:07;;;;;;;11.73;5.72;;;;;;;;;;5100672;28;20246;-48
2023/09/23 06:07:35;;;;;;;9.55;5.55;;;;;;;;;;5113631;28;20225;-48
2023/09/23 06:10:03;;;;;;;9.70;5.82;;;;;;;;;;5114003;28;20226;-49
2023/09/23 06:12:32;;;;;;;11.43;5.78;;;;;;;;;;5093196;28;20238;-48
2023/09/23 06:15:00;;;;;;;15.07;6.20;;;;;;;;;;5095038;28;20233;-47
2023/09/23 06:17:27;;;;;;;9.60;5.45;;;;;;;;;;5105754;28;20612;-49
2023/09/23 06:19:56;;;;;;;13.75;6.20;;;;;;;;;;5091632;28;20279;-48
2023/09/23 06:22:24;;;;;;;11.38;6.22;;;;;;;;;;5099746;27;20224;-50
2023/09/23 06:24:52;;;;;;;11.05;6.13;;;;;;;;;;5111855;28;20226;-51
2023/09/23 06:27:19;;;;;;;13.95;5.82;;;;;;;;;;5111931;27;20713;-48
2023/09/23 06:29:47;;;;;;;13.07;6.05;;;;;;;;;;5101269;28;20234;-49
2023/09/23 06:32:14;;;;;;;10.02;5.97;;;;;;;;;;5102264;28;20238;-49
2023/09/23 06:34:41;;;;;;;9.30;5.25;;;;;;;;;;5091370;28;20222;-49
2023/09/23 06:37:08;;;;;;;10.48;5.65;;;;;;;;;;5092742;28;20223;-48
2023/09/23 06:39:35;;;;;;;15.25;6.20;;;;;;;;;;5103110;28;20720;-47
2023/09/23 06:42:03;;;;;;;8.93;5.53;;;;;;;;;;5111319;28;20605;-49
2023/09/23 06:44:30;;;;;;;13.38;5.82;;;;;;;;;;5111816;28;20217;-48
2023/09/23 06:47:00;;;;;;;16.77;6.30;;;;;;;;;;5094082;27;20222;-47
2023/09/23 06:49:29;;;;;;;16.00;5.40;;;;;;;;;;5093016;28;20230;-47
2023/09/23 06:51:56;;;;;;;10.95;5.93;;;;;;;;;;5096913;28;20218;-48
2023/09/23 06:54:24;;;;;;;14.38;5.55;;;;;;;;;;5112184;28;20225;-49
2023/09/23 06:56:54;;;;;;;11.05;6.15;;;;;;;;;;5095131;28;20215;-51
2023/09/23 06:59:22;;;;;;;11.90;6.00;;;;;;;;;;5092400;28;20223;-50
2023/09/23 07:01:49;;;;;;;12.32;5.78;;;;;;;;;;5092175;28;20763;-47
2023/09/23 07:04:17;;;;;;;9.57;4.93;;;;;;;;;;5092225;28;20251;-48
2023/09/23 07:06:44;;;;;;;13.32;5.22;;;;;;;;;;5092165;28;20301;-49
2023/09/23 07:09:12;;;;;;;15.32;5.40;;;;;;;;;;5092266;28;20763;-48
2023/09/23 07:11:40;;;;;;;9.13;5.07;;;;;;;;;;5092699;28;20225;-48
2023/09/23 07:14:08;;;;;;;14.88;5.57;;;;;;;;;;5092992;28;20202;-49
2023/09/23 07:16:35;;;;;;;13.32;5.45;;;;;;;;;;5093275;28;20199;-49
2023/09/23 07:19:03;;;;;;;8.52;4.70;;;;;;;;;;5092777;28;20692;-49
2023/09/23 07:21:30;;;;;;;8.88;4.97;;;;;;;;;;5091163;28;20285;-50
2023/09/23 07:23:58;;;;;;;18.38;5.15;;;;;;;;;;5090847;28;20207;-49
2023/09/23 07:26:25;;;;;;;10.80;5.25;;;;;;;;;;5090626;28;20671;-49
2023/09/23 07:28:53;;;;;;;11.57;4.60;;;;;;;;;;5090642;28;20232;-48
2023/09/23 07:31:20;;;;;;;21.80;4.78;;;;;;;;;;5090656;28;20276;-48
2023/09/23 07:33:48;;;;;;;16.38;5.07;;;;;;;;;;5097471;28;20190;-49
2023/09/23 07:36:17;;;;;;;16.95;4.57;;;;;;;;;;5110603;28;20794;-50
2023/09/23 07:38:44;;;;;;;14.68;5.18;;;;;;;;;;5111126;28;20202;-50
2023/09/23 07:41:12;;;;;;;8.65;4.65;;;;;;;;;;5112927;28;20210;-48
2023/09/23 07:43:40;;;;;;;10.15;4.40;;;;;;;;;;5113577;28;20202;-47
2023/09/23 07:46:07;;;;;;;11.18;5.03;;;;;;;;;;5111238;28;20701;-47
2023/09/23 07:48:34;;;;;;;12.05;4.95;;;;;;;;;;5113829;28;20242;-46
2023/09/23 07:51:01;;;;;;;9.95;4.65;;;;;;;;;;5116724;28;20227;-47
2023/09/23 07:53:29;;;;;;;12.52;4.07;;;;;;;;;;5117370;28;20213;-46
2023/09/23 07:55:56;;;;;;;7.22;4.53;;;;;;;;;;5115599;28;20206;-48
2023/09/23 07:58:23;;;;;;;18.58;4.65;;;;;;;;;;5109522;28;20195;-51
2023/09/23 08:00:50;;;;;;;8.57;3.67;;;;;;;;;;5113387;28;20248;-48
2023/09/23 08:03:17;;;;;;;11.90;4.75;;;;;;;;;;5104651;28;20206;-49
2023/09/23 08:05:45;;;;;;;12.48;4.88;;;;;;;;;;5104558;28;20228;-48
2023/09/23 08:08:14;;;;;;;9.27;4.43;;;;;;;;;;5114810;28;20201;-50
2023/09/23 08:10:42;;;;;;;12.27;4.63;;;;;;;;;;5114333;28;20206;-49
2023/09/23 08:13:11;;;;;;;12.50;4.80;;;;;;;;;;5110643;27;20234;-48
2023/09/23 08:15:38;;;;;;;13.85;4.47;;;;;;;;;;5102478;28;20189;-50
2023/09/23 08:18:06;;;;;;;16.42;5.00;;;;;;;;;;5102422;28;20230;-51
2023/09/23 08:20:33;;;;;;;10.50;4.45;;;;;;;;;;5098662;28;20210;-49
2023/09/23 08:23:00;;;;;;;11.68;4.38;;;;;;;;;;5112333;28;20577;-49
2023/09/23 08:25:27;;;;;;;25.48;4.82;;;;;;;;;;5116225;28;20198;-49
2023/09/23 08:27:56;;;;;;;12.55;4.57;;;;;;;;;;5116539;28;20209;-50
2023/09/23 08:30:25;;;;;;;15.20;4.70;;;;;;;;;;5116766;28;20209;-46
2023/09/23 08:32:53;;;;;;;9.73;4.80;;;;;;;;;;5116871;28;20321;-47
2023/09/23 08:35:20;;;;;;;12.10;4.38;;;;;;;;;;5116554;28;20202;-51
2023/09/23 08:37:48;;;;;;;9.38;4.50;;;;;;;;;;5098032;28;20195;-46
2023/09/23 08:40:19;;;;;;;13.73;4.63;;;;;;;;;;5095981;28;20203;-48
2023/09/23 08:42:51;;;;;;;12.02;4.13;;;;;;;;;;5098382;28;20210;-47
2023/09/23 08:45:25;;;;;;;11.30;4.68;;;;;;;;;;5095998;28;20202;-47
2023/09/23 08:47:53;;;;;;;12.27;4.47;;;;;;;;;;5094778;28;20202;-47
2023/09/23 08:50:21;;;;;;;11.05;4.28;;;;;;;;;;5104922;28;20726;-47
2023/09/23 08:52:49;;;;;;;9.05;4.07;;;;;;;;;;5115221;28;20222;-48
2023/09/23 08:55:17;;;;;;;6.72;3.72;;;;;;;;;;5095806;28;20203;-46
2023/09/23 08:57:45;;;;;;;7.47;4.00;;;;;;;;;;5094535;28;20207;-47
2023/09/23 09:00:13;;;;;;;11.95;4.00;;;;;;;;;;5105802;28;20208;-47
2023/09/23 09:02:41;;;;;;;10.32;4.10;;;;;;;;;;5116384;28;20266;-47
2023/09/23 09:05:09;;;;;;;10.18;4.40;;;;;;;;;;5116240;28;20209;-46
2023/09/23 09:07:37;;;;;;;10.43;4.32;;;;;;;;;;5111548;28;20209;-46
2023/09/23 09:10:05;;;;;;;46.78;8.43;;;;;;;;;;5115775;28;20605;-47
2023/09/23 09:12:34;;;;;;;16.75;4.32;;;;;;;;;;5116083;28;20226;-46
2023/09/23 09:15:01;;;;;;;9.82;4.57;;;;;;;;;;5096754;28;20203;-47
2023/09/23 09:17:30;;;;;;;11.27;4.07;;;;;;;;;;5095485;28;20616;-47
2023/09/23 09:20:01;;;;;;;11.68;4.50;;;;;;;;;;5095425;28;20293;-47
2023/09/23 09:22:29;;;;;;;40.78;11.40;;;;;;;;;;5094832;28;20206;-47
2023/09/23 09:24:56;;;;;;;10.75;4.00;;;;;;;;;;5094123;28;20206;-50
2023/09/23 09:27:23;;;;;;;54.60;12.48;;;;;;;;;;5095026;28;20217;-47
2023/09/23 09:29:50;;;;;;;16.67;5.65;;;;;;;;;;5094621;28;20616;-46
2023/09/23 09:32:34;;;;;;;11.93;4.22;;;;;;;;;;5094298;28;20233;-51
2023/09/23 09:35:03;;;;;;;20.83;6.03;;;;;;;;;;5093971;28;20210;-47
2023/09/23 09:37:31;;;;;;;8.88;4.18;;;;;;;;;;5093863;28;20206;-47
2023/09/23 09:39:58;;;;;;;17.02;4.85;;;;;;;;;;5094874;28;20211;-49
2023/09/23 09:42:30;;;;;;;15.60;4.80;;;;;;;;;;5092643;28;20444;-47
2023/09/23 09:44:57;;;;;;;17.17;4.88;;;;;;;;;;5095167;28;20206;-47
2023/09/23 09:47:27;;;;;;;18.35;4.97;;;;;;;;;;5094865;28;20682;-47
2023/09/23 09:49:54;;;;;;;12.15;4.53;;;;;;;;;;5094780;28;20254;-48
2023/09/23 09:52:24;;;;;;;13.18;5.03;;;;;;;;;;5094980;28;20264;-47
2023/09/23 09:54:53;;;;;;;12.63;4.35;;;;;;;;;;5094545;28;20207;-46
2023/09/23 09:57:22;;;;;;;13.15;4.30;;;;;;;;;;5094816;28;20209;-46
2023/09/23 09:59:52;;;;;;;9.20;4.85;;;;;;;;;;5094577;28;20206;-46
2023/09/23 10:02:23;;;;;;;7.55;4.05;;;;;;;;;;5094660;28;20214;-46
2023/09/23 10:04:51;;;;;;;10.60;4.25;;;;;;;;;;5094593;28;20264;-46
2023/09/23 10:07:22;;;;;;;13.55;4.63;;;;;;;;;;5094720;28;20561;-46
2023/09/23 10:09:55;;;;;;;7.45;4.50;;;;;;;;;;5094841;28;20194;-47
2023/09/23 10:12:31;;;;;;;17.90;4.90;;;;;;;;;;5093566;28;20226;-47
2023/09/23 10:14:59;;;;;;;21.35;5.10;;;;;;;;;;5094340;28;20241;-46
2023/09/23 10:17:30;;;;;;;12.38;4.68;;;;;;;;;;5094254;28;20230;-47
2023/09/23 10:19:58;;;;;;;14.10;5.60;;;;;;;;;;5094637;28;20613;-46
2023/09/23 10:22:28;;;;;;;9.43;4.00;;;;;;;;;;5094189;28;20663;-47
2023/09/23 10:25:04;;;;;;;13.88;4.65;;;;;;;;;;5094007;28;20198;-47
2023/09/23 10:27:32;;;;;;;11.73;4.70;;;;;;;;;;5091571;28;20206;-47
2023/09/23 10:30:02;;;;;;;11.20;4.68;;;;;;;;;;5093248;28;20321;-46
2023/09/23 10:32:29;;;;;;;12.07;4.72;;;;;;;;;;5093784;28;20218;-47
2023/09/23 10:34:56;;;;;;;14.23;4.38;;;;;;;;;;5093394;28;20703;-46
2023/09/23 10:37:29;;;;;;;10.40;4.10;;;;;;;;;;5093984;28;20206;-46
2023/09/23 10:40:00;;;;;;;14.98;4.68;;;;;;;;;;5103371;28;20202;-50
2023/09/23 10:42:33;;;;;;;13.88;4.00;;;;;;;;;;5112423;28;20578;-48
2023/09/23 10:45:00;;;;;;;15.43;4.60;;;;;;;;;;5097779;28;20230;-47
2023/09/23 10:47:28;;;;;;;11.02;4.32;;;;;;;;;;5099538;28;20580;-46
2023/09/23 10:49:56;;;;;;;10.05;4.05;;;;;;;;;;5099771;28;20223;-47
2023/09/23 10:52:23;;;;;;;16.40;3.85;;;;;;;;;;5110579;28;20253;-48
2023/09/23 10:54:51;;;;;;;8.63;4.28;;;;;;;;;;5102604;28;20305;-47
2023/09/23 10:57:18;;;;;;;10.77;4.63;;;;;;;;;;5110311;28;20276;-47
2023/09/23 10:59:46;;;;;;;15.98;4.35;;;;;;;;;;5092224;27;20309;-50
2023/09/23 11:02:13;;;;;;;12.60;4.47;;;;;;;;;;5091904;28;20233;-51
2023/09/23 11:04:45;;;;;;;9.57;4.78;;;;;;;;;;5099058;27;20294;-48
2023/09/23 11:07:13;;;;;;;10.30;5.00;;;;;;;;;;5112132;28;20222;-48
2023/09/23 11:09:43;;;;;;;13.10;5.20;;;;;;;;;;5112392;28;20230;-49
2023/09/23 11:12:15;;;;;;;14.93;4.85;;;;;;;;;;5112542;28;20728;-48
2023/09/23 11:14:45;;;;;;;12.57;4.53;;;;;;;;;;5106499;27;20229;-48
2023/09/23 11:17:26;;;;;;;11.98;4.55;;;;;;;;;;5092316;28;20243;-48
2023/09/23 11:19:58;;;;;;;14.75;5.20;;;;;;;;;;5100971;28;20233;-47
2023/09/23 11:22:29;;;;;;;16.13;5.18;;;;;;;;;;5093289;28;20219;-49
2023/09/23 11:24:57;;;;;;;15.88;6.32;;;;;;;;;;5109299;28;20292;-49
2023/09/23 11:27:26;;;;;;;20.23;6.15;;;;;;;;;;5116484;27;20213;-48
2023/09/23 11:29:55;;;;;;;11.13;5.38;;;;;;;;;;5111209;28;20218;-47
2023/09/23 11:32:23;;;;;;;14.05;6.70;;;;;;;;;;5112016;28;20222;-48
2023/09/23 11:34:52;;;;;;;15.07;5.75;;;;;;;;;;5113020;28;20217;-47
2023/09/23 11:37:23;;;;;;;10.75;5.28;;;;;;;;;;5102883;27;20234;-47
2023/09/23 11:39:50;;;;;;;16.25;5.93;;;;;;;;;;5096917;28;20225;-48
2023/09/23 11:42:19;;;;;;;12.27;6.60;;;;;;;;;;5096399;28;20561;-47
2023/09/23 11:44:46;;;;;;;11.82;5.25;;;;;;;;;;5096784;28;20230;-47
2023/09/23 11:47:13;;;;;;;12.55;5.90;;;;;;;;;;5096203;28;20226;-48
2023/09/23 11:49:40;;;;;;;13.93;5.35;;;;;;;;;;5096307;28;20248;-52
2023/09/23 11:52:12;;;;;;;13.73;5.70;;;;;;;;;;5095923;28;20271;-47
2023/09/23 11:54:40;;;;;;;13.52;6.72;;;;;;;;;;5096502;28;20249;-47
2023/09/23 11:57:08;;;;;;;17.13;6.75;;;;;;;;;;5096314;28;20230;-46
2023/09/23 11:59:36;;;;;;;19.33;6.03;;;;;;;;;;5096415;28;20280;-47
2023/09/23 12:02:04;;;;;;;14.35;6.15;;;;;;;;;;5096065;28;20222;-48
2023/09/23 12:04:32;;;;;;;11.90;6.03;;;;;;;;;;5096046;28;20218;-47
2023/09/23 12:07:00;;;;;;;12.98;6.07;;;;;;;;;;5113093;27;20230;-47
2023/09/23 12:09:28;;;;;;;14.55;5.95;;;;;;;;;;5116466;27;20592;-47
2023/09/23 12:11:55;;;;;;;16.50;5.88;;;;;;;;;;5116472;27;20590;-45
2023/09/23 12:14:22;;;;;;;11.50;5.53;;;;;;;;;;5116383;28;20651;-45
2023/09/23 12:16:50;;;;;;;13.63;5.80;;;;;;;;;;5116200;27;20686;-46
2023/09/23 12:19:17;;;;;;;14.45;5.68;;;;;;;;;;5103759;28;20617;-45
2023/09/23 12:21:45;;;;;;;9.43;5.30;;;;;;;;;;5095467;28;20222;-46
2023/09/23 12:24:12;;;;;;;15.65;5.82;;;;;;;;;;5095577;28;20595;-46
2023/09/23 12:26:39;;;;;;;12.73;5.68;;;;;;;;;;5094695;28;20223;-47
2023/09/23 12:29:06;;;;;;;15.80;5.63;;;;;;;;;;5095458;28;20226;-48
2023/09/23 12:31:34;;;;;;;13.88;5.97;;;;;;;;;;5094586;28;20214;-46
2023/09/23 12:34:01;;;;;;;11.30;6.10;;;;;;;;;;5094127;28;20237;-50
2023/09/23 12:36:28;;;;;;;14.27;6.18;;;;;;;;;;5106840;28;20221;-47
2023/09/23 12:38:57;;;;;;;19.75;6.70;;;;;;;;;;5113841;28;20237;-45
2023/09/23 12:41:24;;;;;;;14.57;5.55;;;;;;;;;;5116048;28;20225;-46
2023/09/23 12:43:53;;;;;;;13.38;6.45;;;;;;;;;;5115679;28;20275;-45
2023/09/23 12:46:21;;;;;;;14.95;5.95;;;;;;;;;;5115747;28;20225;-46
2023/09/23 12:48:49;;;;;;;10.75;5.95;;;;;;;;;;5115729;28;20246;-46
2023/09/23 12:51:17;;;;;;;14.73;6.28;;;;;;;;;;5115088;28;20213;-45
2023/09/23 12:53:44;;;;;;;14.98;5.93;;;;;;;;;;5114239;28;20283;-45
2023/09/23 12:56:17;;;;;;;19.42;6.55;;;;;;;;;;5115628;28;20222;-45
2023/09/23 12:58:44;;;;;;;15.98;6.25;;;;;;;;;;5115735;27;20567;-45
2023/09/23 13:01:12;;;;;;;11.88;5.65;;;;;;;;;;5115167;28;20225;-45
2023/09/23 13:03:39;;;;;;;13.25;6.05;;;;;;;;;;5113407;28;20224;-45
2023/09/23 13:06:07;;;;;;;13.50;5.93;;;;;;;;;;5114850;28;20218;-45
2023/09/23 13:08:34;;;;;;;14.05;5.93;;;;;;;;;;5115382;27;20267;-44
2023/09/23 13:11:01;;;;;;;14.45;6.53;;;;;;;;;;5115310;28;20228;-48
2023/09/23 13:13:28;;;;;;;17.83;5.80;;;;;;;;;;5115207;27;20234;-45
2023/09/23 13:15:56;;;;;;;14.73;5.97;;;;;;;;;;5115257;28;20718;-45
2023/09/23 13:18:23;;;;;;;14.60;5.75;;;;;;;;;;5114927;27;20236;-45
2023/09/23 13:20:50;;;;;;;24.30;5.63;;;;;;;;;;5114991;28;20229;-45
2023/09/23 13:23:18;;;;;;;14.13;5.15;;;;;;;;;;5114893;27;20230;-45
2023/09/23 13:25:46;;;;;;;12.98;6.13;;;;;;;;;;5115120;28;20726;-45
2023/09/23 13:28:13;;;;;;;15.85;8.68;;;;;;;;;;5114783;27;20225;-44
2023/09/23 13:30:41;;;;;;;16.13;9.05;;;;;;;;;;5115064;28;20637;-45
2023/09/23 13:33:08;;;;;;;17.88;9.02;;;;;;;;;;5114594;27;20610;-45
2023/09/23 13:35:36;;;;;;;17.70;8.90;;;;;;;;;;5109243;28;20230;-44
2023/09/23 13:38:06;;;;;;;16.17;8.63;;;;;;;;;;5094268;28;20219;-46
2023/09/23 13:40:35;;;;;;;14.88;8.85;;;;;;;;;;5094537;28;20222;-45
2023/09/23 13:43:02;;;;;;;17.48;9.27;;;;;;;;;;5094140;28;20226;-46
2023/09/23 13:45:30;;;;;;;15.90;9.10;;;;;;;;;;5094197;28;20222;-44
2023/09/23 13:47:57;;;;;;;16.52;9.88;;;;;;;;;;5093184;28;20226;-45
2023/09/23 13:50:25;;;;;;;21.13;12.02;;;;;;;;;;5093733;28;20227;-44
2023/09/23 13:52:52;;;;;;;19.75;11.35;;;;;;;;;;5094430;28;20229;-45
2023/09/23 13:55:19;;;;;;;18.55;10.95;;;;;;;;;;5093902;28;20237;-46
2023/09/23 13:57:46;;;;;;;21.73;11.48;;;;;;;;;;5094126;28;20232;-45
2023/09/23 14:00:14;;;;;;;23.17;13.00;;;;;;;;;;5093803;28;20222;-45
2023/09/23 14:02:41;;;;;;;18.40;12.68;;;;;;;;;;5094092;28;20695;-45
2023/09/23 14:05:10;;;;;;;26.73;13.90;;;;;;;;;;5094579;28;20618;-45
2023/09/23 14:07:38;;;;;;;21.20;13.52;;;;;;;;;;5114319;28;20299;-45
2023/09/23 14:10:05;;;;;;;21.13;13.45;;;;;;;;;;5113948;27;20694;-45
2023/09/23 14:12:47;;;;;;;32.53;17.33;;;;;;;;;;5114411;28;20296;-45
2023/09/23 14:15:15;;;;;;;27.45;16.30;;;;;;;;;;5113822;27;20222;-44
2023/09/23 14:17:42;;;;;;;27.63;14.80;;;;;;;;;;5114013;28;20282;-45
2023/09/23 14:20:12;;;;;;;25.42;13.77;;;;;;;;;;5113441;27;20275;-45
2023/09/23 14:22:45;;;;;;;26.10;13.93;;;;;;;;;;5113897;28;20714;-46
2023/09/23 14:25:14;;;;;;;26.08;14.55;;;;;;;;;;5105782;27;20222;-46
2023/09/23 14:27:42;;;;;;;25.00;14.85;;;;;;;;;;5101954;28;20290;-45
2023/09/23 14:30:10;;;;;;;21.08;14.38;;;;;;;;;;5102042;28;20213;-45
2023/09/23 14:32:38;;;;;;;28.80;13.80;;;;;;;;;;5103743;28;20639;-46
2023/09/23 14:35:06;;;;;;;26.23;13.80;;;;;;;;;;5102598;28;20624;-46
2023/09/23 14:37:33;;;;;;;20.88;13.70;;;;;;;;;;5101841;28;20247;-47